Aeroporto :
LOGIN :

Iscrizione | Disclaimer

   EN    FR    IT 

 










Sommario :    VFR   VFR Marginale   IFR   IFR Intensivo   IFR Molto Intensivo
Visibilità : 
Base nubi : 
>= 8 km
>= 3000ft
5 / 8 km
1000 / 3000 ft
1500m / 5 km
500 / 1000 ft
800 / 1500m
200 / 500 ft
< 800m
< 200 ft
Simboli :   Temporali  Nebbia  Neve Forte  Precipitazioni Forti  Vento > 20 kt
SIGMETs :   Varie  Temporali  Ghiacco  Turbolenza  Onda orograficha  Ceneri Vulcaniche






- Altitudine del aeroporto : 616 ft
- Codice IATA : PUF


LFBP - Pau

ULTIMO METAR :
  • 111930Z AUTO 23007KT 9999 SCT062/// BKN072/// BKN230/// ///TCU 08/07 Q1017 TEMPO 4000 RADZ BECMG FEW020 BKN060

METARs OBSOLETI :
  • 111900Z AUTO 25007KT 9999 FEW048/// BKN060/// BKN072/// ///TCU 09/07 Q1018 TEMPO 4000 RADZ BKN014
  • 111830Z AUTO 27009KT 9999 -RA SCT035 BKN041 BKN049 09/07 Q1017 TEMPO 4000 RADZ BKN014
  • 111800Z AUTO 24008KT 9999 BKN039 BKN046 BKN064 09/08 Q1017 TEMPO 4000 RADZ BKN014
  • 111730Z AUTO 23008KT 9999 SCT041/// BKN047/// BKN064/// ///TCU 10/08 Q1016 TEMPO 4000 RADZ BKN014
  • 111700Z AUTO 22006KT 190V250 9999 FEW010 BKN062 10/09 Q1016 TEMPO SHRA

TAF TAF LFBP
Valido dal 11 a 18 ore il 12 a 18 ore UTC


111700Z 1118/1218 27008KT 9999 FEW020 BKN060
PROB30 1118/1121 4000 RADZ BKN014
PROB40
TEMPO 1122/1218 30015G25KT 4000 SHRA BKN012 BKN020TCU



MetMap, La meteo Aeronautica in un colpo d'occhio ! - Copyright ORBIFLY Dicembre 2007 - Disclaimer

ORBIFLY MET'MAP TEAM :

Programmazione e sviluppo : Alexandra Zaïnal
Concezione e sviluppo : Baudouin d'Aumeries
Co-Programmazione e sviluppo : Marc-Olivier Méhu
Supporto tecnico e logistico : Manuel Goepfert
Aiuto per la traduzione : Arnaldo La Scala

Contatto : metmap@orbifly.com




FONTI E CREDITI :

   NOAA